createdAt,value
2019-03-28T00:02:20.499Z,97.69
2019-03-28T00:04:51.948Z,97.75
2019-03-28T00:07:24.302Z,97.78
2019-03-28T00:09:55.832Z,97.77
2019-03-28T00:12:27.067Z,97.68
2019-03-28T00:14:58.381Z,97.68
2019-03-28T00:17:29.727Z,97.68
2019-03-28T00:20:01.028Z,97.61
2019-03-28T00:22:43.014Z,97.59
2019-03-28T00:25:14.747Z,97.63
2019-03-28T00:27:46.311Z,97.71
2019-03-28T00:30:19.444Z,97.78
2019-03-28T00:32:50.774Z,97.92
2019-03-28T00:35:22.122Z,97.90
2019-03-28T00:37:53.459Z,98.05
2019-03-28T00:40:24.747Z,98.08
2019-03-28T00:42:56.001Z,98.12
2019-03-28T00:45:27.353Z,98.15
2019-03-28T00:47:58.662Z,98.14
2019-03-28T00:50:32.863Z,98.12
2019-03-28T00:53:03.067Z,98.18
2019-03-28T00:55:34.399Z,98.25
2019-03-28T00:58:05.715Z,98.25
2019-03-28T01:00:37.056Z,98.29
2019-03-28T01:03:08.396Z,98.33
2019-03-28T01:05:39.627Z,98.30
2019-03-28T01:08:10.975Z,98.31
2019-03-28T01:10:42.354Z,98.33
2019-03-28T01:13:13.614Z,98.34
2019-03-28T01:15:44.895Z,98.41
2019-03-28T01:18:16.102Z,98.46
2019-03-28T01:20:47.451Z,98.47
2019-03-28T01:23:18.716Z,98.47
2019-03-28T01:25:50.054Z,98.48
2019-03-28T01:28:21.363Z,98.48
2019-03-28T01:30:52.722Z,98.42
2019-03-28T01:33:23.968Z,98.39
2019-03-28T01:35:55.291Z,98.41
2019-03-28T01:38:26.623Z,98.39
2019-03-28T01:40:57.939Z,98.44
2019-03-28T01:43:29.247Z,98.47
2019-03-28T01:46:00.523Z,98.52
2019-03-28T01:48:31.772Z,98.44
2019-03-28T01:51:03.101Z,98.35
2019-03-28T01:53:34.463Z,98.34
2019-03-28T01:56:05.780Z,98.34
2019-03-28T01:58:37.087Z,98.38
2019-03-28T02:01:08.422Z,98.41
2019-03-28T02:03:39.629Z,98.38
2019-03-28T02:06:10.936Z,98.40
2019-03-28T02:08:42.306Z,98.39
2019-03-28T02:11:13.616Z,98.36
2019-03-28T02:13:44.947Z,98.36
2019-03-28T02:16:16.273Z,98.35
2019-03-28T02:18:47.524Z,98.25
2019-03-28T02:21:18.911Z,98.31
2019-03-28T02:23:50.267Z,98.36
2019-03-28T02:26:21.540Z,98.39
2019-03-28T02:28:52.855Z,98.42
2019-03-28T02:31:24.158Z,98.46
2019-03-28T02:33:55.442Z,98.43
2019-03-28T02:36:26.649Z,98.40
2019-03-28T02:38:58.585Z,98.39
2019-03-28T02:41:30.047Z,98.38
2019-03-28T02:44:01.319Z,98.37
2019-03-28T02:46:32.647Z,98.34
2019-03-28T02:49:04.005Z,98.31
2019-03-28T02:51:35.338Z,98.30
2019-03-28T02:54:06.690Z,98.36
2019-03-28T02:56:37.945Z,98.39
2019-03-28T02:59:09.257Z,98.50
2019-03-28T03:01:40.823Z,98.52
2019-03-28T03:04:12.121Z,98.56
2019-03-28T03:06:43.414Z,98.64
2019-03-28T03:14:39.763Z,98.59
2019-03-28T03:17:11.109Z,98.52
2019-03-28T03:19:42.496Z,98.56
2019-03-28T03:22:13.908Z,98.56
2019-03-28T03:24:45.232Z,98.63
2019-03-28T03:27:16.540Z,98.67
2019-03-28T03:29:47.942Z,98.67
2019-03-28T03:32:19.593Z,98.60
2019-03-28T03:34:50.999Z,98.63
2019-03-28T03:37:22.412Z,98.68
2019-03-28T03:39:53.723Z,98.75
2019-03-28T03:42:25.035Z,98.70
2019-03-28T03:44:56.378Z,98.72
2019-03-28T03:47:27.686Z,98.79
2019-03-28T03:49:58.986Z,98.76
2019-03-28T03:52:30.351Z,98.81
2019-03-28T03:55:01.671Z,98.77
2019-03-28T03:57:32.989Z,98.72
2019-03-28T04:00:04.627Z,98.67
2019-03-28T04:02:36.598Z,98.70
2019-03-28T04:05:08.744Z,98.74
2019-03-28T04:07:39.927Z,98.77
2019-03-28T04:10:11.401Z,98.78
2019-03-28T04:12:42.802Z,98.78
2019-03-28T04:15:14.172Z,98.68
2019-03-28T04:17:45.507Z,98.63
2019-03-28T04:20:16.864Z,98.60
2019-03-28T04:22:48.215Z,98.65
2019-03-28T04:25:19.532Z,98.62
2019-03-28T04:27:50.869Z,98.62
2019-03-28T04:30:22.792Z,98.61
2019-03-28T04:32:54.374Z,98.50
2019-03-28T04:35:25.742Z,98.52
2019-03-28T04:37:57.132Z,98.53
2019-03-28T04:40:28.492Z,98.59
2019-03-28T04:42:59.877Z,98.57
2019-03-28T04:45:31.074Z,98.55
2019-03-28T04:48:02.377Z,98.51
2019-03-28T04:50:33.750Z,98.53
2019-03-28T04:53:05.115Z,98.54
2019-03-28T04:55:36.551Z,98.58
2019-03-28T04:58:07.889Z,98.65
2019-03-28T05:00:39.117Z,98.54
2019-03-28T05:03:10.437Z,98.53
2019-03-28T05:05:41.780Z,98.51
2019-03-28T05:08:13.091Z,98.53
2019-03-28T05:10:44.409Z,98.60
2019-03-28T05:13:15.767Z,98.61
2019-03-28T05:15:47.014Z,98.61
2019-03-28T05:18:18.328Z,98.61
2019-03-28T05:20:49.751Z,98.65
2019-03-28T05:23:21.096Z,98.60
2019-03-28T05:25:52.429Z,98.66
2019-03-28T05:28:23.693Z,98.69
2019-03-28T05:30:57.368Z,98.68
2019-03-28T05:33:28.724Z,98.68
2019-03-28T05:36:00.077Z,98.70
2019-03-28T05:38:31.394Z,98.63
2019-03-28T05:41:02.724Z,98.51
2019-03-28T05:43:34.048Z,98.62
2019-03-28T05:46:05.400Z,98.69
2019-03-28T05:48:36.774Z,98.71
2019-03-28T05:51:08.186Z,98.69
2019-03-28T05:53:39.406Z,98.70
2019-03-28T05:56:10.717Z,98.79
2019-03-28T05:58:41.990Z,98.76
2019-03-28T06:01:13.396Z,98.74
2019-03-28T06:03:44.725Z,98.66
2019-03-28T06:06:16.047Z,98.67
2019-03-28T06:08:47.358Z,98.60
2019-03-28T06:11:18.735Z,98.67
2019-03-28T06:13:49.931Z,98.66
2019-03-28T06:16:21.182Z,98.69
2019-03-28T06:18:52.543Z,98.78
2019-03-28T06:21:23.861Z,98.77
2019-03-28T06:23:55.102Z,98.84
2019-03-28T06:26:26.403Z,98.87
2019-03-28T06:28:57.726Z,98.84
2019-03-28T06:31:29.045Z,98.79
2019-03-28T06:34:00.536Z,98.86
2019-03-28T06:36:32.035Z,98.90
2019-03-28T06:39:03.723Z,98.95
2019-03-28T06:41:34.999Z,99.00
2019-03-28T06:44:06.363Z,98.98
2019-03-28T06:46:37.881Z,99.04
2019-03-28T06:49:09.024Z,98.97
2019-03-28T06:51:40.316Z,98.91
2019-03-28T06:54:11.584Z,98.84
2019-03-28T06:56:43.488Z,98.89
2019-03-28T06:59:15.096Z,98.93
2019-03-28T07:01:46.462Z,98.86
2019-03-28T07:04:17.776Z,98.84
2019-03-28T07:06:49.030Z,98.89
2019-03-28T07:09:20.379Z,98.85
2019-03-28T07:11:51.666Z,98.76
2019-03-28T07:14:22.910Z,98.62
2019-03-28T07:16:54.188Z,98.60
2019-03-28T07:19:25.445Z,98.53
2019-03-28T07:21:56.765Z,98.41
2019-03-28T07:24:28.091Z,98.39
2019-03-28T07:26:59.470Z,98.45
2019-03-28T07:29:30.790Z,98.50
2019-03-28T07:32:02.100Z,98.32
2019-03-28T07:34:33.303Z,98.27
2019-03-28T07:37:04.620Z,98.34
2019-03-28T07:39:36.045Z,98.48
2019-03-28T07:42:07.410Z,98.50
2019-03-28T07:44:38.627Z,98.60
2019-03-28T07:47:09.929Z,98.59
2019-03-28T07:49:41.252Z,98.59
2019-03-28T07:52:12.565Z,98.51
2019-03-28T07:54:43.882Z,98.50
2019-03-28T07:57:15.417Z,98.48
2019-03-28T07:59:46.945Z,98.53
2019-03-28T08:02:18.165Z,98.49
2019-03-28T08:04:49.438Z,98.41
2019-03-28T08:07:20.772Z,98.39
2019-03-28T08:09:52.094Z,98.34
2019-03-28T08:12:23.636Z,98.35
2019-03-28T08:14:55.105Z,98.36
2019-03-28T08:17:26.397Z,98.46
2019-03-28T08:19:57.629Z,98.48
2019-03-28T08:22:29.869Z,98.48
2019-03-28T08:25:01.328Z,98.52
2019-03-28T08:27:34.275Z,98.39
2019-03-28T08:30:17.551Z,98.27
2019-03-28T08:32:40.089Z,98.23
2019-03-28T08:35:12.615Z,98.17
2019-03-28T08:37:44.521Z,98.07
2019-03-28T08:40:43.784Z,98.06
2019-03-28T08:43:15.430Z,98.09
2019-03-28T08:45:46.659Z,97.89
2019-03-28T08:48:19.700Z,97.75
2019-03-28T08:50:51.004Z,97.70
2019-03-28T08:53:22.305Z,97.71
2019-03-28T08:55:53.638Z,97.17
2019-03-28T08:58:24.938Z,96.96
2019-03-28T09:00:56.393Z,96.49
2019-03-28T09:03:27.764Z,96.28
2019-03-28T09:05:59.110Z,96.25
2019-03-28T09:08:30.441Z,96.11
2019-03-28T09:11:01.689Z,95.92
2019-03-28T09:13:33.082Z,95.76
2019-03-28T09:16:04.386Z,95.35
2019-03-28T09:18:35.690Z,95.06
2019-03-28T09:21:07.095Z,94.98
2019-03-28T09:23:38.402Z,94.60
2019-03-28T09:26:09.750Z,94.40
2019-03-28T09:28:40.987Z,93.95
2019-03-28T09:31:19.691Z,94.01
2019-03-28T09:33:45.295Z,94.08
2019-03-28T09:36:16.615Z,94.30
2019-03-28T09:38:47.871Z,93.75
2019-03-28T09:41:19.230Z,93.42
2019-03-28T09:43:55.749Z,93.26
2019-03-28T09:46:23.584Z,93.10
2019-03-28T09:48:54.969Z,93.41
2019-03-28T09:51:26.312Z,92.57
2019-03-28T09:53:57.593Z,91.20
2019-03-28T09:56:28.996Z,91.42
2019-03-28T09:59:00.555Z,90.41
2019-03-28T10:01:31.893Z,90.71
2019-03-28T10:04:06.245Z,90.29
2019-03-28T10:06:36.208Z,90.82
2019-03-28T10:09:09.167Z,90.45
2019-03-28T10:11:40.473Z,90.12
2019-03-28T10:14:11.786Z,90.05
2019-03-28T10:16:43.106Z,89.79
2019-03-28T10:19:14.409Z,89.92
2019-03-28T10:21:46.218Z,90.55
2019-03-28T10:24:17.545Z,90.20
2019-03-28T10:26:48.849Z,89.84
2019-03-28T10:29:20.081Z,89.58
2019-03-28T10:31:51.514Z,89.32
2019-03-28T10:34:22.779Z,88.97
2019-03-28T10:36:54.106Z,88.05
2019-03-28T10:39:25.552Z,87.95
2019-03-28T10:41:56.856Z,88.62
2019-03-28T10:44:28.157Z,89.22
2019-03-28T10:46:59.505Z,88.53
2019-03-28T10:49:30.796Z,88.44
2019-03-28T10:52:04.055Z,88.78
2019-03-28T10:54:35.067Z,89.04
2019-03-28T10:57:13.627Z,88.84
2019-03-28T10:59:39.620Z,88.58
2019-03-28T11:02:10.968Z,88.93
2019-03-28T11:04:42.256Z,88.97
2019-03-28T11:07:13.610Z,88.86
2019-03-28T11:09:45.061Z,88.89
2019-03-28T11:12:16.378Z,88.96
2019-03-28T11:14:47.748Z,88.79
2019-03-28T11:17:19.015Z,88.66
2019-03-28T11:19:50.250Z,88.73
2019-03-28T11:22:21.591Z,88.89
2019-03-28T11:24:52.929Z,88.96
2019-03-28T11:27:24.106Z,89.12
2019-03-28T11:29:55.428Z,88.96
2019-03-28T11:32:26.596Z,89.11
2019-03-28T11:34:58.027Z,89.48
2019-03-28T11:37:29.344Z,89.68
2019-03-28T11:40:00.493Z,89.82
2019-03-28T11:42:31.848Z,89.67
2019-03-28T11:45:03.232Z,89.64
2019-03-28T11:47:34.532Z,88.95
2019-03-28T11:50:06.503Z,89.05
2019-03-28T11:52:37.906Z,89.21
2019-03-28T11:55:10.892Z,89.02
2019-03-28T11:57:42.261Z,88.96
2019-03-28T12:00:15.191Z,88.69
2019-03-28T12:02:46.499Z,87.85
2019-03-28T12:05:17.880Z,87.80
2019-03-28T12:07:49.210Z,87.56
2019-03-28T12:10:20.623Z,87.36
2019-03-28T12:12:51.912Z,87.07
2019-03-28T12:15:23.223Z,87.65
2019-03-28T12:17:54.645Z,87.85
2019-03-28T12:20:25.944Z,88.46
2019-03-28T12:22:57.283Z,88.66
2019-03-28T12:25:28.625Z,89.01
2019-03-28T12:28:00.508Z,88.90
2019-03-28T12:30:32.039Z,89.23
2019-03-28T12:33:03.364Z,89.76
2019-03-28T12:35:34.650Z,90.01
2019-03-28T12:38:05.999Z,89.90
2019-03-28T12:40:37.385Z,89.69
2019-03-28T12:43:08.717Z,89.36
2019-03-28T12:45:40.007Z,89.57
2019-03-28T12:48:11.407Z,89.20
2019-03-28T12:50:42.620Z,88.71
2019-03-28T12:53:13.903Z,88.36
2019-03-28T12:55:45.263Z,88.06
2019-03-28T12:58:16.447Z,87.60
2019-03-28T13:00:47.758Z,87.49
2019-03-28T13:03:19.114Z,86.77
2019-03-28T13:05:50.415Z,86.68
2019-03-28T13:08:21.741Z,86.91
2019-03-28T13:10:53.624Z,86.86
2019-03-28T13:13:24.916Z,86.78
2019-03-28T13:15:56.081Z,86.77
2019-03-28T13:18:27.292Z,87.04
2019-03-28T13:21:12.355Z,87.77
2019-03-28T13:23:31.610Z,87.45
2019-03-28T13:26:03.037Z,88.26
2019-03-28T13:28:34.340Z,88.24
2019-03-28T13:31:05.669Z,88.19
2019-03-28T13:33:36.973Z,88.04
2019-03-28T13:36:08.292Z,88.43
2019-03-28T13:38:39.585Z,87.88
2019-03-28T13:41:10.901Z,88.40
2019-03-28T13:43:42.122Z,88.41
2019-03-28T13:46:13.495Z,88.43
2019-03-28T13:48:44.802Z,88.17
2019-03-28T13:51:16.109Z,88.06
2019-03-28T13:53:47.448Z,88.48
2019-03-28T13:56:18.688Z,88.51
2019-03-28T13:58:50.029Z,88.16
2019-03-28T14:01:22.540Z,88.22
2019-03-28T14:03:53.978Z,87.20
2019-03-28T14:06:25.311Z,87.11
2019-03-28T14:08:56.565Z,87.52
2019-03-28T14:11:27.948Z,87.38
2019-03-28T14:13:59.235Z,87.25
2019-03-28T14:16:30.510Z,87.10
2019-03-28T14:19:01.746Z,87.08
2019-03-28T14:21:33.198Z,87.06
2019-03-28T14:24:04.647Z,87.13
2019-03-28T14:26:37.589Z,87.08
2019-03-28T14:29:09.081Z,87.29
2019-03-28T14:31:40.430Z,87.01
2019-03-28T14:34:11.679Z,87.10
2019-03-28T14:36:43.101Z,87.09
2019-03-28T14:39:14.423Z,87.09
2019-03-28T14:41:46.476Z,87.47
2019-03-28T14:44:18.100Z,87.49
2019-03-28T14:46:49.418Z,87.64
2019-03-28T14:49:20.715Z,87.51
2019-03-28T14:51:52.185Z,86.89
2019-03-28T14:54:23.508Z,87.13
2019-03-28T14:56:56.012Z,87.27
2019-03-28T14:59:32.915Z,87.53
2019-03-28T15:02:01.388Z,87.48
2019-03-28T15:04:32.775Z,87.88
2019-03-28T15:07:07.159Z,87.58
2019-03-28T15:09:37.781Z,87.22
2019-03-28T15:12:09.259Z,87.44
2019-03-28T15:14:40.586Z,87.67
2019-03-28T15:17:11.973Z,87.53
2019-03-28T15:19:43.404Z,88.02
2019-03-28T15:22:14.780Z,87.96
2019-03-28T15:24:46.037Z,87.92
2019-03-28T15:27:17.472Z,87.92
2019-03-28T15:29:48.711Z,87.92
2019-03-28T15:32:20.118Z,87.31
2019-03-28T15:34:51.450Z,86.98
2019-03-28T15:37:22.815Z,87.25
2019-03-28T15:39:54.166Z,87.67
2019-03-28T15:42:27.983Z,87.48
2019-03-28T15:44:58.645Z,87.24
2019-03-28T15:47:30.063Z,87.79
2019-03-28T15:50:03.037Z,87.53
2019-03-28T15:52:34.452Z,87.37
2019-03-28T15:55:06.033Z,87.55
2019-03-28T15:57:40.708Z,87.47
2019-03-28T16:00:12.063Z,86.94
2019-03-28T16:02:43.402Z,87.08
2019-03-28T16:05:14.929Z,87.52
2019-03-28T16:07:47.494Z,87.76
2019-03-28T16:10:19.638Z,87.12
2019-03-28T16:12:50.956Z,87.37
2019-03-28T16:15:22.510Z,87.21
2019-03-28T16:17:53.968Z,87.07
2019-03-28T16:20:25.324Z,86.87
2019-03-28T16:22:56.759Z,87.00
2019-03-28T16:25:28.158Z,86.61
2019-03-28T16:27:59.565Z,87.07
2019-03-28T16:30:39.348Z,87.03
2019-03-28T16:33:11.124Z,86.79
2019-03-28T16:35:52.173Z,87.02
2019-03-28T16:38:42.453Z,87.02
2019-03-28T16:41:13.923Z,87.00
2019-03-28T16:43:45.254Z,87.20
2019-03-28T16:46:16.669Z,87.50
2019-03-28T16:48:53.507Z,87.57
2019-03-28T16:51:25.787Z,87.29
2019-03-28T16:53:57.323Z,87.38
2019-03-28T16:56:31.826Z,87.48
2019-03-28T16:59:03.261Z,87.63
2019-03-28T17:01:34.702Z,87.54
2019-03-28T17:04:19.758Z,87.93
2019-03-28T17:06:39.683Z,88.11
2019-03-28T17:09:11.033Z,87.97
2019-03-28T17:11:42.431Z,88.05
2019-03-28T17:14:13.764Z,87.45
2019-03-28T17:16:45.112Z,87.16
2019-03-28T17:19:16.496Z,87.65
2019-03-28T17:21:47.910Z,87.49
2019-03-28T17:24:19.371Z,87.83
2019-03-28T17:26:51.455Z,88.01
2019-03-28T17:29:22.850Z,88.23
2019-03-28T17:31:54.255Z,87.51
2019-03-28T17:34:34.817Z,87.56
2019-03-28T17:36:58.636Z,87.82
2019-03-28T17:39:30.132Z,87.86
2019-03-28T17:42:01.473Z,87.13
2019-03-28T17:44:33.335Z,86.91
2019-03-28T17:47:05.303Z,86.99
2019-03-28T17:49:36.671Z,86.87
2019-03-28T17:52:08.018Z,86.46
2019-03-28T17:54:39.373Z,86.67
2019-03-28T17:57:10.653Z,86.48
2019-03-28T17:59:45.198Z,86.83
2019-03-28T18:02:15.111Z,86.52
2019-03-28T18:04:48.189Z,86.39
2019-03-28T18:07:19.643Z,86.13
2019-03-28T18:09:51.019Z,86.16
2019-03-28T18:12:22.422Z,85.71
2019-03-28T18:14:53.772Z,85.89
2019-03-28T18:17:25.709Z,85.89
2019-03-28T18:19:57.078Z,85.42
2019-03-28T18:22:28.556Z,85.71
2019-03-28T18:24:59.876Z,85.56
2019-03-28T18:27:31.231Z,85.15
2019-03-28T18:30:05.287Z,85.22
2019-03-28T18:32:37.951Z,86.04
2019-03-28T18:35:09.002Z,85.72
2019-03-28T18:37:40.301Z,85.89
2019-03-28T18:40:12.143Z,85.90
2019-03-28T18:42:43.475Z,85.62
2019-03-28T18:45:15.246Z,85.83
2019-03-28T18:47:47.971Z,85.75
2019-03-28T18:50:19.359Z,85.33
2019-03-28T18:52:50.768Z,85.61
2019-03-28T18:55:22.169Z,85.78
2019-03-28T18:57:53.561Z,86.13
2019-03-28T19:00:24.955Z,86.25
2019-03-28T19:02:56.292Z,86.33
2019-03-28T19:05:27.683Z,86.07
2019-03-28T19:07:59.022Z,86.37
2019-03-28T19:10:30.404Z,86.47
2019-03-28T19:13:04.508Z,86.23
2019-03-28T19:15:34.985Z,85.86
2019-03-28T19:18:06.324Z,85.81
2019-03-28T19:20:40.053Z,85.92
2019-03-28T19:23:11.412Z,85.67
2019-03-28T19:25:42.748Z,86.13
2019-03-28T19:28:27.646Z,86.28
2019-03-28T19:30:47.114Z,86.13
2019-03-28T19:33:18.530Z,86.04
2019-03-28T19:35:51.106Z,85.83
2019-03-28T19:38:22.635Z,86.02
2019-03-28T19:40:54.034Z,86.04
2019-03-28T19:43:25.947Z,85.77
2019-03-28T19:45:57.268Z,85.84
2019-03-28T19:48:28.654Z,85.79
2019-03-28T19:51:00.043Z,85.72
2019-03-28T19:53:31.439Z,86.05
2019-03-28T19:56:02.798Z,85.95
2019-03-28T19:58:35.206Z,85.67
2019-03-28T20:01:07.168Z,85.69
2019-03-28T20:03:38.682Z,86.11
2019-03-28T20:06:21.698Z,86.09
2019-03-28T20:08:43.172Z,86.43
2019-03-28T20:11:14.533Z,86.18
2019-03-28T20:13:45.821Z,86.03
2019-03-28T20:16:17.177Z,86.02
2019-03-28T20:18:48.542Z,86.20
2019-03-28T20:21:19.914Z,86.54
2019-03-28T20:23:51.293Z,86.18
2019-03-28T20:26:22.665Z,86.38
2019-03-28T20:28:54.005Z,86.53
2019-03-28T20:31:25.409Z,86.44
2019-03-28T20:33:56.790Z,85.96
2019-03-28T20:36:37.419Z,86.17
2019-03-28T20:39:06.204Z,86.27
2019-03-28T20:41:37.991Z,86.23
2019-03-28T20:44:11.705Z,86.38
2019-03-28T20:46:42.502Z,86.70
2019-03-28T20:49:13.789Z,86.57
2019-03-28T20:51:45.117Z,86.66
2019-03-28T20:54:16.471Z,86.67
2019-03-28T20:56:47.882Z,86.44
2019-03-28T20:59:19.175Z,86.48
2019-03-28T21:01:50.519Z,86.72
2019-03-28T21:04:31.162Z,86.55
2019-03-28T21:06:55.463Z,86.51
2019-03-28T21:09:27.666Z,86.57
2019-03-28T21:12:00.128Z,86.52
2019-03-28T21:14:31.565Z,86.72
2019-03-28T21:17:03.194Z,86.85
2019-03-28T21:19:34.541Z,86.84
2019-03-28T21:22:06.099Z,86.77
2019-03-28T21:24:37.409Z,87.07
2019-03-28T21:27:10.161Z,87.10
2019-03-28T21:29:48.698Z,86.67
2019-03-28T21:32:14.611Z,86.80
2019-03-28T21:34:46.843Z,86.84
2019-03-28T21:37:18.615Z,86.94
2019-03-28T21:39:50.266Z,86.87
2019-03-28T21:42:21.609Z,86.95
2019-03-28T21:44:52.937Z,87.06
2019-03-28T21:47:24.815Z,86.87
2019-03-28T21:49:56.240Z,86.92
2019-03-28T21:52:27.491Z,86.97
2019-03-28T21:55:00.395Z,86.97
2019-03-28T21:57:31.747Z,86.87
2019-03-28T22:00:03.472Z,86.50
2019-03-28T22:02:35.967Z,86.65
2019-03-28T22:05:08.767Z,86.38
2019-03-28T22:07:41.118Z,86.64
2019-03-28T22:10:12.971Z,86.69
2019-03-28T22:12:44.590Z,86.78
2019-03-28T22:15:16.226Z,86.63
2019-03-28T22:17:47.957Z,86.75
2019-03-28T22:20:19.540Z,86.92
2019-03-28T22:22:51.184Z,86.87
2019-03-28T22:25:22.875Z,87.21
2019-03-28T22:27:54.567Z,87.29
2019-03-28T22:30:26.278Z,86.77
2019-03-28T22:32:57.954Z,87.02
2019-03-28T22:35:29.601Z,87.09
2019-03-28T22:38:01.247Z,87.31
2019-03-28T22:40:32.923Z,87.48
2019-03-28T22:43:04.527Z,87.39
2019-03-28T22:45:36.118Z,87.07
2019-03-28T22:48:11.055Z,87.12
2019-03-28T22:50:41.185Z,87.22
2019-03-28T22:53:12.820Z,87.10
2019-03-28T22:55:44.673Z,86.97
2019-03-28T22:58:16.370Z,86.89
2019-03-28T23:00:49.290Z,87.10
2019-03-28T23:03:21.167Z,87.45
2019-03-28T23:05:52.754Z,87.34
2019-03-28T23:08:24.446Z,87.63
2019-03-28T23:10:56.046Z,87.96
2019-03-28T23:13:27.712Z,88.24
2019-03-28T23:15:59.414Z,88.20
2019-03-28T23:18:31.176Z,88.10
2019-03-28T23:21:02.850Z,88.12
2019-03-28T23:23:34.544Z,88.26
2019-03-28T23:26:06.130Z,88.37
2019-03-28T23:28:37.780Z,88.37
2019-03-28T23:31:09.342Z,88.25
2019-03-28T23:33:41.105Z,88.06
2019-03-28T23:36:12.722Z,87.77
2019-03-28T23:38:44.340Z,87.85
2019-03-28T23:41:16.058Z,87.91
2019-03-28T23:43:47.566Z,88.01
2019-03-28T23:46:19.100Z,88.10
2019-03-28T23:48:50.682Z,88.32
2019-03-28T23:51:22.282Z,88.45
2019-03-28T23:53:53.866Z,88.36
2019-03-28T23:56:25.524Z,88.77
2019-03-28T23:58:57.167Z,88.70
